Terminal Aerodrome Forecast
Issued by NWS

Home | Current Version | Previous Version | Text Only | Print | Product List | Glossary On
Versions: 1 2 3 4 5 6 7 8 9 10 11 12 13 14 15 16 17 18 19 20 21 22 23 24
000
FTUS42 KGSP 201123
TAFHKY
TAF
KHKY 201123Z 2012/2112 30006KT P6SM FEW250
     FM201700 09004KT P6SM FEW250
     FM210700 07003KT P6SM SCT250
     FM211000 06003KT 4SM BR BKN015=

USA.gov is the U.S. government's official web portal to all federal, state and local government web resources and services.